sensor_id;sensor_type;location;lat;lon;timestamp;temperature;humidity
72772;SHT30;60894;42.544;1.516;2022-09-09T00:01:23;13.67;71.23
72772;SHT30;60894;42.544;1.516;2022-09-09T00:04:00;13.75;71.44
72772;SHT30;60894;42.544;1.516;2022-09-09T00:06:31;13.73;71.42
72772;SHT30;60894;42.544;1.516;2022-09-09T00:09:09;13.73;71.17
72772;SHT30;60894;42.544;1.516;2022-09-09T00:11:42;13.85;70.24
72772;SHT30;60894;42.544;1.516;2022-09-09T00:14:15;13.77;69.92
72772;SHT30;60894;42.544;1.516;2022-09-09T00:16:49;13.72;71.21
72772;SHT30;60894;42.544;1.516;2022-09-09T00:19:22;13.65;71.47
72772;SHT30;60894;42.544;1.516;2022-09-09T00:21:58;13.61;71.60
72772;SHT30;60894;42.544;1.516;2022-09-09T00:24:32;13.54;71.34
72772;SHT30;60894;42.544;1.516;2022-09-09T00:27:07;13.59;71.49
72772;SHT30;60894;42.544;1.516;2022-09-09T00:29:40;13.76;70.65
72772;SHT30;60894;42.544;1.516;2022-09-09T00:32:15;13.58;70.73
72772;SHT30;60894;42.544;1.516;2022-09-09T00:34:48;13.45;72.14
72772;SHT30;60894;42.544;1.516;2022-09-09T00:37:16;13.48;72.18
72772;SHT30;60894;42.544;1.516;2022-09-09T00:39:46;13.52;71.94
72772;SHT30;60894;42.544;1.516;2022-09-09T00:42:16;13.48;72.40
72772;SHT30;60894;42.544;1.516;2022-09-09T00:44:53;13.46;71.62
72772;SHT30;60894;42.544;1.516;2022-09-09T00:47:40;13.42;71.94
72772;SHT30;60894;42.544;1.516;2022-09-09T00:50:28;13.36;72.99
72772;SHT30;60894;42.544;1.516;2022-09-09T00:53:11;13.35;72.39
72772;SHT30;60894;42.544;1.516;2022-09-09T00:55:45;13.45;72.03
72772;SHT30;60894;42.544;1.516;2022-09-09T00:58:14;13.35;71.81
72772;SHT30;60894;42.544;1.516;2022-09-09T01:00:43;13.36;72.03
72772;SHT30;60894;42.544;1.516;2022-09-09T01:03:22;13.22;73.09
72772;SHT30;60894;42.544;1.516;2022-09-09T01:06:00;13.14;72.93
72772;SHT30;60894;42.544;1.516;2022-09-09T01:08:42;13.28;72.90
72772;SHT30;60894;42.544;1.516;2022-09-09T01:11:20;13.18;73.05
72772;SHT30;60894;42.544;1.516;2022-09-09T01:13:54;13.29;72.18
72772;SHT30;60894;42.544;1.516;2022-09-09T01:16:24;13.28;72.09
72772;SHT30;60894;42.544;1.516;2022-09-09T01:18:54;13.21;72.00
72772;SHT30;60894;42.544;1.516;2022-09-09T01:21:32;13.03;73.26
72772;SHT30;60894;42.544;1.516;2022-09-09T01:24:19;12.98;73.31
72772;SHT30;60894;42.544;1.516;2022-09-09T01:26:49;13.01;73.33
72772;SHT30;60894;42.544;1.516;2022-09-09T01:29:19;12.90;73.65
72772;SHT30;60894;42.544;1.516;2022-09-09T01:31:53;13.04;72.77
72772;SHT30;60894;42.544;1.516;2022-09-09T01:34:21;12.97;73.28
72772;SHT30;60894;42.544;1.516;2022-09-09T01:36:52;12.87;73.51
72772;SHT30;60894;42.544;1.516;2022-09-09T01:39:20;12.84;73.68
72772;SHT30;60894;42.544;1.516;2022-09-09T01:41:49;12.81;73.66
72772;SHT30;60894;42.544;1.516;2022-09-09T01:44:16;12.84;73.48
72772;SHT30;60894;42.544;1.516;2022-09-09T01:46:43;12.88;72.98
72772;SHT30;60894;42.544;1.516;2022-09-09T01:49:10;12.76;73.40
72772;SHT30;60894;42.544;1.516;2022-09-09T01:51:39;12.73;73.50
72772;SHT30;60894;42.544;1.516;2022-09-09T01:54:08;12.70;74.10
72772;SHT30;60894;42.544;1.516;2022-09-09T01:56:42;12.72;74.05
72772;SHT30;60894;42.544;1.516;2022-09-09T01:59:34;12.64;74.33
72772;SHT30;60894;42.544;1.516;2022-09-09T02:02:10;12.79;73.55
72772;SHT30;60894;42.544;1.516;2022-09-09T02:04:40;12.67;74.03
72772;SHT30;60894;42.544;1.516;2022-09-09T02:07:18;12.55;74.63
72772;SHT30;60894;42.544;1.516;2022-09-09T02:09:51;12.61;74.65
72772;SHT30;60894;42.544;1.516;2022-09-09T02:12:23;12.60;74.69
72772;SHT30;60894;42.544;1.516;2022-09-09T02:14:56;12.63;74.52
72772;SHT30;60894;42.544;1.516;2022-09-09T02:17:28;12.68;74.26
72772;SHT30;60894;42.544;1.516;2022-09-09T02:20:02;12.73;73.83
72772;SHT30;60894;42.544;1.516;2022-09-09T02:22:31;12.72;73.84
72772;SHT30;60894;42.544;1.516;2022-09-09T02:25:00;12.64;74.22
72772;SHT30;60894;42.544;1.516;2022-09-09T02:27:27;12.61;74.26
72772;SHT30;60894;42.544;1.516;2022-09-09T02:29:57;12.53;74.67
72772;SHT30;60894;42.544;1.516;2022-09-09T02:32:25;12.43;75.00
72772;SHT30;60894;42.544;1.516;2022-09-09T02:34:55;12.49;74.94
72772;SHT30;60894;42.544;1.516;2022-09-09T02:37:28;12.55;74.46
72772;SHT30;60894;42.544;1.516;2022-09-09T02:39:58;12.55;74.65
72772;SHT30;60894;42.544;1.516;2022-09-09T02:42:25;12.50;74.97
72772;SHT30;60894;42.544;1.516;2022-09-09T02:44:52;12.50;75.08
72772;SHT30;60894;42.544;1.516;2022-09-09T02:47:26;12.45;75.24
72772;SHT30;60894;42.544;1.516;2022-09-09T02:50:06;12.63;73.95
72772;SHT30;60894;42.544;1.516;2022-09-09T02:52:42;12.59;74.64
72772;SHT30;60894;42.544;1.516;2022-09-09T02:55:17;12.66;74.67
72772;SHT30;60894;42.544;1.516;2022-09-09T02:57:47;12.61;74.81
72772;SHT30;60894;42.544;1.516;2022-09-09T03:00:15;12.63;74.36
72772;SHT30;60894;42.544;1.516;2022-09-09T03:02:43;12.68;74.30
72772;SHT30;60894;42.544;1.516;2022-09-09T03:05:10;12.59;74.67
72772;SHT30;60894;42.544;1.516;2022-09-09T03:07:38;12.57;74.21
72772;SHT30;60894;42.544;1.516;2022-09-09T03:10:06;12.49;74.79
72772;SHT30;60894;42.544;1.516;2022-09-09T03:12:33;12.56;74.63
72772;SHT30;60894;42.544;1.516;2022-09-09T03:15:00;12.56;74.79
72772;SHT30;60894;42.544;1.516;2022-09-09T03:17:27;12.49;74.97
72772;SHT30;60894;42.544;1.516;2022-09-09T03:19:56;12.52;74.91
72772;SHT30;60894;42.544;1.516;2022-09-09T03:22:24;12.52;74.94
72772;SHT30;60894;42.544;1.516;2022-09-09T03:24:51;12.45;75.25
72772;SHT30;60894;42.544;1.516;2022-09-09T03:27:18;12.42;75.21
72772;SHT30;60894;42.544;1.516;2022-09-09T03:29:46;12.33;75.57
72772;SHT30;60894;42.544;1.516;2022-09-09T03:32:16;12.40;74.97
72772;SHT30;60894;42.544;1.516;2022-09-09T03:34:44;12.49;74.79
72772;SHT30;60894;42.544;1.516;2022-09-09T03:37:14;12.43;74.92
72772;SHT30;60894;42.544;1.516;2022-09-09T03:39:41;12.39;75.07
72772;SHT30;60894;42.544;1.516;2022-09-09T03:42:08;12.39;75.06
72772;SHT30;60894;42.544;1.516;2022-09-09T03:44:35;12.37;75.31
72772;SHT30;60894;42.544;1.516;2022-09-09T03:47:02;12.30;75.27
72772;SHT30;60894;42.544;1.516;2022-09-09T03:49:29;12.29;75.78
72772;SHT30;60894;42.544;1.516;2022-09-09T03:51:56;12.25;75.51
72772;SHT30;60894;42.544;1.516;2022-09-09T03:54:25;12.26;75.50
72772;SHT30;60894;42.544;1.516;2022-09-09T03:56:52;12.28;75.18
72772;SHT30;60894;42.544;1.516;2022-09-09T03:59:19;12.32;75.32
72772;SHT30;60894;42.544;1.516;2022-09-09T04:01:48;12.21;75.73
72772;SHT30;60894;42.544;1.516;2022-09-09T04:04:15;12.19;75.90
72772;SHT30;60894;42.544;1.516;2022-09-09T04:06:42;12.21;75.57
72772;SHT30;60894;42.544;1.516;2022-09-09T04:09:09;12.11;76.26
72772;SHT30;60894;42.544;1.516;2022-09-09T04:11:37;12.09;76.22
72772;SHT30;60894;42.544;1.516;2022-09-09T04:14:04;12.15;75.97
72772;SHT30;60894;42.544;1.516;2022-09-09T04:16:32;12.14;75.78
72772;SHT30;60894;42.544;1.516;2022-09-09T04:19:00;12.09;76.22
72772;SHT30;60894;42.544;1.516;2022-09-09T04:21:29;12.15;76.04
72772;SHT30;60894;42.544;1.516;2022-09-09T04:23:56;12.18;75.45
72772;SHT30;60894;42.544;1.516;2022-09-09T04:26:23;12.12;76.09
72772;SHT30;60894;42.544;1.516;2022-09-09T04:28:51;12.11;76.11
72772;SHT30;60894;42.544;1.516;2022-09-09T04:31:20;12.06;76.43
72772;SHT30;60894;42.544;1.516;2022-09-09T04:33:48;12.04;76.49
72772;SHT30;60894;42.544;1.516;2022-09-09T04:36:16;11.98;76.49
72772;SHT30;60894;42.544;1.516;2022-09-09T04:38:45;11.91;76.52
72772;SHT30;60894;42.544;1.516;2022-09-09T04:41:14;11.92;76.79
72772;SHT30;60894;42.544;1.516;2022-09-09T04:43:42;11.89;76.97
72772;SHT30;60894;42.544;1.516;2022-09-09T04:46:10;11.88;77.21
72772;SHT30;60894;42.544;1.516;2022-09-09T04:48:37;11.94;76.63
72772;SHT30;60894;42.544;1.516;2022-09-09T04:51:06;11.85;77.17
72772;SHT30;60894;42.544;1.516;2022-09-09T04:53:34;11.91;77.17
72772;SHT30;60894;42.544;1.516;2022-09-09T04:56:02;11.91;76.84
72772;SHT30;60894;42.544;1.516;2022-09-09T04:58:29;11.99;76.32
72772;SHT30;60894;42.544;1.516;2022-09-09T05:01:06;11.98;76.63
72772;SHT30;60894;42.544;1.516;2022-09-09T05:03:34;11.89;77.13
72772;SHT30;60894;42.544;1.516;2022-09-09T05:06:06;11.88;76.95
72772;SHT30;60894;42.544;1.516;2022-09-09T05:08:34;12.02;76.52
72772;SHT30;60894;42.544;1.516;2022-09-09T05:11:01;12.01;76.49
72772;SHT30;60894;42.544;1.516;2022-09-09T05:13:28;11.88;77.17
72772;SHT30;60894;42.544;1.516;2022-09-09T05:15:57;11.88;77.43
72772;SHT30;60894;42.544;1.516;2022-09-09T05:18:24;11.88;76.96
72772;SHT30;60894;42.544;1.516;2022-09-09T05:20:58;11.89;77.36
72772;SHT30;60894;42.544;1.516;2022-09-09T05:23:25;11.88;76.88
72772;SHT30;60894;42.544;1.516;2022-09-09T05:25:56;11.85;77.20
72772;SHT30;60894;42.544;1.516;2022-09-09T05:28:24;11.84;77.53
72772;SHT30;60894;42.544;1.516;2022-09-09T05:30:58;11.84;77.81
72772;SHT30;60894;42.544;1.516;2022-09-09T05:33:26;11.92;77.45
72772;SHT30;60894;42.544;1.516;2022-09-09T05:35:59;11.95;77.49
72772;SHT30;60894;42.544;1.516;2022-09-09T05:38:27;11.96;77.44
72772;SHT30;60894;42.544;1.516;2022-09-09T05:40:55;11.96;77.49
72772;SHT30;60894;42.544;1.516;2022-09-09T05:43:22;11.98;77.25
72772;SHT30;60894;42.544;1.516;2022-09-09T05:45:59;11.96;77.43
72772;SHT30;60894;42.544;1.516;2022-09-09T05:48:29;11.99;77.03
72772;SHT30;60894;42.544;1.516;2022-09-09T05:50:58;12.08;76.72
72772;SHT30;60894;42.544;1.516;2022-09-09T05:53:25;12.05;77.12
72772;SHT30;60894;42.544;1.516;2022-09-09T05:55:59;12.01;77.13
72772;SHT30;60894;42.544;1.516;2022-09-09T05:58:27;12.12;76.72
72772;SHT30;60894;42.544;1.516;2022-09-09T06:01:01;12.18;76.32
72772;SHT30;60894;42.544;1.516;2022-09-09T06:03:28;12.12;76.64
72772;SHT30;60894;42.544;1.516;2022-09-09T06:06:01;12.26;76.92
72772;SHT30;60894;42.544;1.516;2022-09-09T06:08:31;12.49;75.95
72772;SHT30;60894;42.544;1.516;2022-09-09T06:11:02;12.47;75.61
72772;SHT30;60894;42.544;1.516;2022-09-09T06:13:30;12.46;75.80
72772;SHT30;60894;42.544;1.516;2022-09-09T06:15:57;12.56;75.45
72772;SHT30;60894;42.544;1.516;2022-09-09T06:18:25;12.66;75.21
72772;SHT30;60894;42.544;1.516;2022-09-09T06:20:56;12.79;75.10
72772;SHT30;60894;42.544;1.516;2022-09-09T06:23:25;12.97;74.41
72772;SHT30;60894;42.544;1.516;2022-09-09T06:25:59;13.24;73.13
72772;SHT30;60894;42.544;1.516;2022-09-09T06:28:26;13.15;73.59
72772;SHT30;60894;42.544;1.516;2022-09-09T06:30:57;13.17;73.24
72772;SHT30;60894;42.544;1.516;2022-09-09T06:33:25;13.14;73.78
72772;SHT30;60894;42.544;1.516;2022-09-09T06:35:52;13.17;73.68
72772;SHT30;60894;42.544;1.516;2022-09-09T06:38:19;13.22;74.09
72772;SHT30;60894;42.544;1.516;2022-09-09T06:40:52;13.18;74.25
72772;SHT30;60894;42.544;1.516;2022-09-09T06:43:20;13.34;73.96
72772;SHT30;60894;42.544;1.516;2022-09-09T06:45:53;13.46;72.42
72772;SHT30;60894;42.544;1.516;2022-09-09T06:48:20;13.66;71.91
72772;SHT30;60894;42.544;1.516;2022-09-09T06:50:48;13.58;72.55
72772;SHT30;60894;42.544;1.516;2022-09-09T06:53:16;13.51;73.03
72772;SHT30;60894;42.544;1.516;2022-09-09T06:55:45;13.70;72.25
72772;SHT30;60894;42.544;1.516;2022-09-09T06:58:13;13.72;72.10
72772;SHT30;60894;42.544;1.516;2022-09-09T07:00:40;13.66;72.40
72772;SHT30;60894;42.544;1.516;2022-09-09T07:03:07;14.00;71.58
72772;SHT30;60894;42.544;1.516;2022-09-09T07:05:34;14.05;71.63
72772;SHT30;60894;42.544;1.516;2022-09-09T07:08:02;14.16;70.97
72772;SHT30;60894;42.544;1.516;2022-09-09T07:10:29;14.27;70.57
72772;SHT30;60894;42.544;1.516;2022-09-09T07:12:56;14.52;68.90
72772;SHT30;60894;42.544;1.516;2022-09-09T07:15:25;14.57;69.35
72772;SHT30;60894;42.544;1.516;2022-09-09T07:17:52;14.63;68.38
72772;SHT30;60894;42.544;1.516;2022-09-09T07:20:19;14.64;68.31
72772;SHT30;60894;42.544;1.516;2022-09-09T07:22:46;14.77;68.76
72772;SHT30;60894;42.544;1.516;2022-09-09T07:25:13;14.81;68.50
72772;SHT30;60894;42.544;1.516;2022-09-09T07:27:43;14.79;68.08
72772;SHT30;60894;42.544;1.516;2022-09-09T07:30:11;14.64;68.42
72772;SHT30;60894;42.544;1.516;2022-09-09T07:32:39;14.74;67.92
72772;SHT30;60894;42.544;1.516;2022-09-09T07:35:07;14.92;67.08
72772;SHT30;60894;42.544;1.516;2022-09-09T07:37:36;15.16;67.00
72772;SHT30;60894;42.544;1.516;2022-09-09T07:40:04;15.10;67.41
72772;SHT30;60894;42.544;1.516;2022-09-09T07:42:31;15.10;67.11
72772;SHT30;60894;42.544;1.516;2022-09-09T07:44:58;15.18;67.07
72772;SHT30;60894;42.544;1.516;2022-09-09T07:47:25;15.26;66.08
72772;SHT30;60894;42.544;1.516;2022-09-09T07:49:54;15.44;65.96
72772;SHT30;60894;42.544;1.516;2022-09-09T07:52:21;15.63;65.27
72772;SHT30;60894;42.544;1.516;2022-09-09T07:54:48;15.76;64.53
72772;SHT30;60894;42.544;1.516;2022-09-09T07:57:15;15.86;64.17
72772;SHT30;60894;42.544;1.516;2022-09-09T07:59:42;15.98;63.80
72772;SHT30;60894;42.544;1.516;2022-09-09T08:02:10;16.04;63.60
72772;SHT30;60894;42.544;1.516;2022-09-09T08:04:37;16.15;63.37
72772;SHT30;60894;42.544;1.516;2022-09-09T08:07:05;16.15;62.39
72772;SHT30;60894;42.544;1.516;2022-09-09T08:09:32;16.24;62.11
72772;SHT30;60894;42.544;1.516;2022-09-09T08:12:00;16.49;62.58
72772;SHT30;60894;42.544;1.516;2022-09-09T08:14:28;16.60;62.05
72772;SHT30;60894;42.544;1.516;2022-09-09T08:16:55;16.80;61.46
72772;SHT30;60894;42.544;1.516;2022-09-09T08:19:22;17.00;61.26
72772;SHT30;60894;42.544;1.516;2022-09-09T08:21:50;17.20;60.31
72772;SHT30;60894;42.544;1.516;2022-09-09T08:24:18;17.41;59.78
72772;SHT30;60894;42.544;1.516;2022-09-09T08:26:47;17.57;59.54
72772;SHT30;60894;42.544;1.516;2022-09-09T08:29:15;17.67;58.64
72772;SHT30;60894;42.544;1.516;2022-09-09T08:31:44;17.83;58.79
72772;SHT30;60894;42.544;1.516;2022-09-09T08:34:12;17.83;59.00
72772;SHT30;60894;42.544;1.516;2022-09-09T08:36:42;17.75;59.31
72772;SHT30;60894;42.544;1.516;2022-09-09T08:39:10;18.02;58.73
72772;SHT30;60894;42.544;1.516;2022-09-09T08:41:49;18.17;57.99
72772;SHT30;60894;42.544;1.516;2022-09-09T08:44:25;18.37;58.10
72772;SHT30;60894;42.544;1.516;2022-09-09T08:47:01;18.60;57.45
72772;SHT30;60894;42.544;1.516;2022-09-09T08:49:49;18.81;56.70
72772;SHT30;60894;42.544;1.516;2022-09-09T08:52:19;19.02;56.30
72772;SHT30;60894;42.544;1.516;2022-09-09T08:54:49;19.19;56.34
72772;SHT30;60894;42.544;1.516;2022-09-09T08:57:20;19.19;56.14
72772;SHT30;60894;42.544;1.516;2022-09-09T08:59:50;19.08;56.96
72772;SHT30;60894;42.544;1.516;2022-09-09T09:02:21;19.11;56.58
72772;SHT30;60894;42.544;1.516;2022-09-09T09:05:11;19.15;56.43
72772;SHT30;60894;42.544;1.516;2022-09-09T09:07:50;19.22;55.81
72772;SHT30;60894;42.544;1.516;2022-09-09T09:10:29;19.16;56.59
72772;SHT30;60894;42.544;1.516;2022-09-09T09:13:03;19.21;56.27
72772;SHT30;60894;42.544;1.516;2022-09-09T09:15:35;19.22;55.05
72772;SHT30;60894;42.544;1.516;2022-09-09T09:18:04;19.31;55.74
72772;SHT30;60894;42.544;1.516;2022-09-09T09:20:38;19.23;56.71
72772;SHT30;60894;42.544;1.516;2022-09-09T09:23:15;19.31;55.56
72772;SHT30;60894;42.544;1.516;2022-09-09T09:25:43;19.33;55.91
72772;SHT30;60894;42.544;1.516;2022-09-09T09:28:14;19.38;55.50
72772;SHT30;60894;42.544;1.516;2022-09-09T09:30:45;19.48;56.06
72772;SHT30;60894;42.544;1.516;2022-09-09T09:33:18;19.45;55.27
72772;SHT30;60894;42.544;1.516;2022-09-09T09:35:48;19.59;55.14
72772;SHT30;60894;42.544;1.516;2022-09-09T09:38:18;19.56;54.73
72772;SHT30;60894;42.544;1.516;2022-09-09T09:40:49;19.82;54.58
72772;SHT30;60894;42.544;1.516;2022-09-09T09:43:22;20.03;53.64
72772;SHT30;60894;42.544;1.516;2022-09-09T09:45:50;20.40;53.19
72772;SHT30;60894;42.544;1.516;2022-09-09T09:48:17;20.27;51.66
72772;SHT30;60894;42.544;1.516;2022-09-09T09:50:49;20.38;51.60
72772;SHT30;60894;42.544;1.516;2022-09-09T09:53:21;20.42;50.65
72772;SHT30;60894;42.544;1.516;2022-09-09T09:55:56;20.65;49.52
72772;SHT30;60894;42.544;1.516;2022-09-09T09:58:27;20.62;50.66
72772;SHT30;60894;42.544;1.516;2022-09-09T10:00:59;20.85;50.03
72772;SHT30;60894;42.544;1.516;2022-09-09T10:03:27;20.93;49.51
72772;SHT30;60894;42.544;1.516;2022-09-09T10:05:55;21.03;48.93
72772;SHT30;60894;42.544;1.516;2022-09-09T10:08:24;21.32;48.89
72772;SHT30;60894;42.544;1.516;2022-09-09T10:10:59;21.43;47.84
72772;SHT30;60894;42.544;1.516;2022-09-09T10:13:38;21.53;47.92
72772;SHT30;60894;42.544;1.516;2022-09-09T10:16:22;21.77;47.66
72772;SHT30;60894;42.544;1.516;2022-09-09T10:18:58;22.12;47.14
72772;SHT30;60894;42.544;1.516;2022-09-09T10:24:44;22.21;45.10
72772;SHT30;60894;42.544;1.516;2022-09-09T10:27:19;22.39;45.13
72772;SHT30;60894;42.544;1.516;2022-09-09T10:30:01;22.46;44.46
72772;SHT30;60894;42.544;1.516;2022-09-09T10:32:40;22.15;45.90
72772;SHT30;60894;42.544;1.516;2022-09-09T10:35:17;21.73;46.78
72772;SHT30;60894;42.544;1.516;2022-09-09T10:38:02;21.84;46.48
72772;SHT30;60894;42.544;1.516;2022-09-09T10:40:33;21.85;46.80
72772;SHT30;60894;42.544;1.516;2022-09-09T10:43:09;21.95;45.48
72772;SHT30;60894;42.544;1.516;2022-09-09T10:45:48;22.43;44.11
72772;SHT30;60894;42.544;1.516;2022-09-09T10:48:37;22.41;43.63
72772;SHT30;60894;42.544;1.516;2022-09-09T10:51:16;22.64;43.40
72772;SHT30;60894;42.544;1.516;2022-09-09T10:53:53;23.27;42.23
72772;SHT30;60894;42.544;1.516;2022-09-09T10:56:26;22.84;42.65
72772;SHT30;60894;42.544;1.516;2022-09-09T10:58:58;22.82;43.32
72772;SHT30;60894;42.544;1.516;2022-09-09T11:01:32;22.70;42.81
72772;SHT30;60894;42.544;1.516;2022-09-09T11:04:05;22.60;42.85
72772;SHT30;60894;42.544;1.516;2022-09-09T11:06:41;23.07;42.34
72772;SHT30;60894;42.544;1.516;2022-09-09T11:09:15;23.44;41.10
72772;SHT30;60894;42.544;1.516;2022-09-09T11:11:48;23.73;39.91
72772;SHT30;60894;42.544;1.516;2022-09-09T11:14:21;23.50;39.59
72772;SHT30;60894;42.544;1.516;2022-09-09T11:16:55;23.51;39.26
72772;SHT30;60894;42.544;1.516;2022-09-09T11:19:28;23.28;39.92
72772;SHT30;60894;42.544;1.516;2022-09-09T11:21:55;23.51;40.38
72772;SHT30;60894;42.544;1.516;2022-09-09T11:24:28;23.86;39.94
72772;SHT30;60894;42.544;1.516;2022-09-09T11:27:01;24.41;38.76
72772;SHT30;60894;42.544;1.516;2022-09-09T11:29:46;24.43;39.14
72772;SHT30;60894;42.544;1.516;2022-09-09T11:32:30;24.13;38.91
72772;SHT30;60894;42.544;1.516;2022-09-09T11:35:11;24.20;38.59
72772;SHT30;60894;42.544;1.516;2022-09-09T11:38:08;24.13;39.15
72772;SHT30;60894;42.544;1.516;2022-09-09T11:40:38;24.26;39.24
72772;SHT30;60894;42.544;1.516;2022-09-09T11:43:10;23.92;38.98
72772;SHT30;60894;42.544;1.516;2022-09-09T11:45:40;23.83;39.84
72772;SHT30;60894;42.544;1.516;2022-09-09T11:48:23;24.20;38.57
72772;SHT30;60894;42.544;1.516;2022-09-09T11:51:00;24.40;37.88
72772;SHT30;60894;42.544;1.516;2022-09-09T11:53:28;24.65;37.95
72772;SHT30;60894;42.544;1.516;2022-09-09T11:56:07;24.46;38.71
72772;SHT30;60894;42.544;1.516;2022-09-09T11:58:40;24.29;38.82
72772;SHT30;60894;42.544;1.516;2022-09-09T12:01:16;24.23;39.43
72772;SHT30;60894;42.544;1.516;2022-09-09T12:04:01;24.46;38.90
72772;SHT30;60894;42.544;1.516;2022-09-09T12:06:33;23.88;38.52
72772;SHT30;60894;42.544;1.516;2022-09-09T12:09:13;24.26;39.01
72772;SHT30;60894;42.544;1.516;2022-09-09T12:11:43;24.53;37.00
72772;SHT30;60894;42.544;1.516;2022-09-09T12:14:19;24.74;36.64
72772;SHT30;60894;42.544;1.516;2022-09-09T12:16:47;24.94;36.37
72772;SHT30;60894;42.544;1.516;2022-09-09T12:19:18;24.73;36.58
72772;SHT30;60894;42.544;1.516;2022-09-09T12:21:53;24.85;36.83
72772;SHT30;60894;42.544;1.516;2022-09-09T12:24:27;24.74;36.98
72772;SHT30;60894;42.544;1.516;2022-09-09T12:27:02;25.10;35.84
72772;SHT30;60894;42.544;1.516;2022-09-09T12:29:39;24.94;36.21
72772;SHT30;60894;42.544;1.516;2022-09-09T12:32:11;25.47;34.99
72772;SHT30;60894;42.544;1.516;2022-09-09T12:34:42;25.90;34.49
72772;SHT30;60894;42.544;1.516;2022-09-09T12:37:24;25.82;34.36
72772;SHT30;60894;42.544;1.516;2022-09-09T12:39:55;25.77;33.99
72772;SHT30;60894;42.544;1.516;2022-09-09T12:42:23;26.20;33.27
72772;SHT30;60894;42.544;1.516;2022-09-09T12:44:52;25.92;33.29
72772;SHT30;60894;42.544;1.516;2022-09-09T12:47:20;25.74;33.87
72772;SHT30;60894;42.544;1.516;2022-09-09T12:49:50;25.72;33.51
72772;SHT30;60894;42.544;1.516;2022-09-09T12:52:23;25.84;33.86
72772;SHT30;60894;42.544;1.516;2022-09-09T12:54:52;26.20;32.60
72772;SHT30;60894;42.544;1.516;2022-09-09T12:57:21;26.18;32.43
72772;SHT30;60894;42.544;1.516;2022-09-09T12:59:51;25.93;32.38
72772;SHT30;60894;42.544;1.516;2022-09-09T13:02:21;26.48;32.09
72772;SHT30;60894;42.544;1.516;2022-09-09T13:04:50;25.90;32.36
72772;SHT30;60894;42.544;1.516;2022-09-09T13:07:18;26.25;32.11
72772;SHT30;60894;42.544;1.516;2022-09-09T13:09:46;26.47;31.99
72772;SHT30;60894;42.544;1.516;2022-09-09T13:12:16;26.18;32.27
72772;SHT30;60894;42.544;1.516;2022-09-09T13:14:46;26.54;31.92
72772;SHT30;60894;42.544;1.516;2022-09-09T13:17:20;26.55;31.57
72772;SHT30;60894;42.544;1.516;2022-09-09T13:19:49;26.96;31.01
72772;SHT30;60894;42.544;1.516;2022-09-09T13:22:21;26.82;31.66
72772;SHT30;60894;42.544;1.516;2022-09-09T13:24:58;27.13;31.17
72772;SHT30;60894;42.544;1.516;2022-09-09T13:27:30;26.74;30.78
72772;SHT30;60894;42.544;1.516;2022-09-09T13:29:57;27.06;31.74
72772;SHT30;60894;42.544;1.516;2022-09-09T13:32:25;27.33;30.82
72772;SHT30;60894;42.544;1.516;2022-09-09T13:34:56;27.10;30.53
72772;SHT30;60894;42.544;1.516;2022-09-09T13:37:31;27.60;30.61
72772;SHT30;60894;42.544;1.516;2022-09-09T13:39:59;27.10;30.14
72772;SHT30;60894;42.544;1.516;2022-09-09T13:42:29;26.91;30.29
72772;SHT30;60894;42.544;1.516;2022-09-09T13:44:59;26.54;30.13
72772;SHT30;60894;42.544;1.516;2022-09-09T13:47:32;25.58;32.14
72772;SHT30;60894;42.544;1.516;2022-09-09T13:50:18;25.73;31.06
72772;SHT30;60894;42.544;1.516;2022-09-09T13:52:46;25.73;31.79
72772;SHT30;60894;42.544;1.516;2022-09-09T13:55:14;25.66;31.98
72772;SHT30;60894;42.544;1.516;2022-09-09T13:57:50;25.53;32.58
72772;SHT30;60894;42.544;1.516;2022-09-09T14:00:18;25.58;32.83
72772;SHT30;60894;42.544;1.516;2022-09-09T14:02:45;25.10;33.59
72772;SHT30;60894;42.544;1.516;2022-09-09T14:05:14;25.10;33.71
72772;SHT30;60894;42.544;1.516;2022-09-09T14:07:42;25.07;34.11
72772;SHT30;60894;42.544;1.516;2022-09-09T14:10:09;24.53;34.43
72772;SHT30;60894;42.544;1.516;2022-09-09T14:12:36;24.60;34.59
72772;SHT30;60894;42.544;1.516;2022-09-09T14:15:05;24.39;34.50
72772;SHT30;60894;42.544;1.516;2022-09-09T14:17:33;24.37;34.18
72772;SHT30;60894;42.544;1.516;2022-09-09T14:20:02;24.85;33.83
72772;SHT30;60894;42.544;1.516;2022-09-09T14:22:32;25.22;33.44
72772;SHT30;60894;42.544;1.516;2022-09-09T14:24:59;25.39;33.52
72772;SHT30;60894;42.544;1.516;2022-09-09T14:27:26;25.07;33.50
72772;SHT30;60894;42.544;1.516;2022-09-09T14:29:54;25.32;33.14
72772;SHT30;60894;42.544;1.516;2022-09-09T14:32:21;25.49;32.94
72772;SHT30;60894;42.544;1.516;2022-09-09T14:34:48;25.39;33.33
72772;SHT30;60894;42.544;1.516;2022-09-09T14:37:15;25.25;34.62
72772;SHT30;60894;42.544;1.516;2022-09-09T14:39:44;25.33;34.60
72772;SHT30;60894;42.544;1.516;2022-09-09T14:42:12;24.64;36.27
72772;SHT30;60894;42.544;1.516;2022-09-09T14:44:39;24.46;36.96
72772;SHT30;60894;42.544;1.516;2022-09-09T14:47:07;23.90;37.63
72772;SHT30;60894;42.544;1.516;2022-09-09T14:49:34;23.42;38.58
72772;SHT30;60894;42.544;1.516;2022-09-09T14:52:02;23.21;39.26
72772;SHT30;60894;42.544;1.516;2022-09-09T14:54:29;23.35;38.53
72772;SHT30;60894;42.544;1.516;2022-09-09T14:56:59;23.24;39.55
72772;SHT30;60894;42.544;1.516;2022-09-09T14:59:26;23.65;38.82
72772;SHT30;60894;42.544;1.516;2022-09-09T15:01:54;23.69;38.70
72772;SHT30;60894;42.544;1.516;2022-09-09T15:04:21;23.76;38.99
72772;SHT30;60894;42.544;1.516;2022-09-09T15:06:48;23.62;40.02
72772;SHT30;60894;42.544;1.516;2022-09-09T15:09:17;23.95;39.36
72772;SHT30;60894;42.544;1.516;2022-09-09T15:11:45;24.02;39.70
72772;SHT30;60894;42.544;1.516;2022-09-09T15:14:13;23.86;40.43
72772;SHT30;60894;42.544;1.516;2022-09-09T15:16:40;23.73;40.96
72772;SHT30;60894;42.544;1.516;2022-09-09T15:19:08;23.58;41.53
72772;SHT30;60894;42.544;1.516;2022-09-09T15:21:36;23.15;42.63
72772;SHT30;60894;42.544;1.516;2022-09-09T15:24:04;23.15;43.12
72772;SHT30;60894;42.544;1.516;2022-09-09T15:26:32;23.07;43.20
72772;SHT30;60894;42.544;1.516;2022-09-09T15:28:59;23.08;43.06
72772;SHT30;60894;42.544;1.516;2022-09-09T15:31:30;22.93;43.39
72772;SHT30;60894;42.544;1.516;2022-09-09T15:33:59;22.83;44.30
72772;SHT30;60894;42.544;1.516;2022-09-09T15:36:28;22.76;44.25
72772;SHT30;60894;42.544;1.516;2022-09-09T15:38:55;22.56;44.77
72772;SHT30;60894;42.544;1.516;2022-09-09T15:41:23;22.31;44.84
72772;SHT30;60894;42.544;1.516;2022-09-09T15:43:51;22.45;44.63
72772;SHT30;60894;42.544;1.516;2022-09-09T15:46:31;22.35;45.33
72772;SHT30;60894;42.544;1.516;2022-09-09T15:49:03;22.41;45.21
72772;SHT30;60894;42.544;1.516;2022-09-09T15:51:31;22.33;45.55
72772;SHT30;60894;42.544;1.516;2022-09-09T15:53:59;22.43;45.35
72772;SHT30;60894;42.544;1.516;2022-09-09T15:56:27;22.38;45.47